Compton, California
Current Conditions -  °F | °C
As of 6:53 AM on Thursday 30 Oct 2014 (Local Time) from KLGB Reporting Station
Clear Clear  
Wind Chill: 60°   Ceiling: Unl
Heat Index: 60°   Visibility: 10mi
Dew Point: 56°   Wind: 3mph
Humidity: 86%   Direction: 330°NNW
Pressure: 29.97"   Gusts: NA
Location:  33.89°N, 118.22°W
Report Text: KLGB 301353Z 33003KT 10SM CLR 16/13 A2997 RMK AO2 SLP148 T01560133
Loading
Personal Weather Stations






























Interactive Weather Map
Tropical Storm Tracking
New forecast layout! Learn more

10-Day Weather Forecast

Advertisements
Track Severe Weather on mobile